Time;durP1;ratioP1;P1;durP2;ratioP2;P2;SDS_P1;SDS_P2;PMS_P1;PMS_P2;Temp;Humidity;BMP_temperature;BMP_pressure;BME280_temperature;BME280_humidity;BME280_pressure;Samples;Min_cycle;Max_cycle;Signal;HPM_P1;HPM_P2
2022/06/01 00:00:24;;;;;;;13.80;12.50;;;12.20;99.90;;;;;;2095031;28;20032;-68
2022/06/01 00:01:25;;;;;;;15.07;13.65;;;12.20;99.90;;;;;;2088587;28;20679;-69
2022/06/01 00:02:26;;;;;;;15.27;13.68;;;12.20;99.90;;;;;;2088982;28;20025;-69
2022/06/01 00:03:37;;;;;;;15.85;14.20;;;12.20;99.90;;;;;;2088840;28;20779;-70
2022/06/01 00:04:37;;;;;;;14.68;13.18;;;12.20;99.90;;;;;;2088801;28;20071;-70
2022/06/01 00:05:38;;;;;;;16.02;14.38;;;12.20;99.90;;;;;;2088607;28;20090;-69
2022/06/01 00:06:38;;;;;;;15.20;13.63;;;12.20;99.90;;;;;;2088574;28;20124;-69
2022/06/01 00:07:39;;;;;;;16.35;14.65;;;12.10;99.90;;;;;;2088776;28;20086;-71
2022/06/01 00:08:41;;;;;;;16.02;14.43;;;12.10;99.90;;;;;;2088161;28;20029;-70
2022/06/01 00:09:41;;;;;;;16.13;14.52;;;12.10;99.90;;;;;;2088149;28;20029;-70
2022/06/01 00:10:42;;;;;;;14.55;13.15;;;12.10;99.90;;;;;;2088135;28;20107;-68
2022/06/01 00:11:42;;;;;;;14.60;13.10;;;12.10;99.90;;;;;;2088193;28;20522;-68
2022/06/01 00:12:43;;;;;;;14.90;13.50;;;12.10;99.90;;;;;;2088777;28;20609;-69
2022/06/01 00:13:45;;;;;;;16.40;14.70;;;12.10;99.90;;;;;;2088814;28;20025;-72
2022/06/01 00:14:45;;;;;;;15.00;13.60;;;12.10;99.90;;;;;;2088470;28;20162;-69
2022/06/01 00:15:47;;;;;;;15.55;14.00;;;12.10;99.90;;;;;;2088185;28;20033;-68
2022/06/01 00:16:47;;;;;;;16.98;15.27;;;12.10;99.90;;;;;;2088683;28;20033;-69
2022/06/01 00:17:48;;;;;;;17.35;15.50;;;12.10;99.90;;;;;;2088637;28;20483;-67
2022/06/01 00:18:49;;;;;;;16.35;14.75;;;12.10;99.90;;;;;;2088695;28;20048;-68
2022/06/01 00:19:49;;;;;;;16.23;14.63;;;12.00;99.90;;;;;;2088028;28;20124;-68
2022/06/01 00:20:51;;;;;;;17.17;15.40;;;12.00;99.90;;;;;;2088356;28;20045;-70
2022/06/01 00:23:12;;;;;;;17.63;15.70;;;12.00;99.90;;;;;;2088720;28;20044;-70
2022/06/01 00:24:12;;;;;;;18.10;16.30;;;12.00;99.90;;;;;;2088612;28;20028;-68
2022/06/01 00:25:15;;;;;;;18.70;16.80;;;12.00;99.90;;;;;;2088332;28;20096;-68
2022/06/01 00:26:16;;;;;;;17.75;15.95;;;12.00;99.90;;;;;;2088799;28;20819;-68
2022/06/01 00:27:17;;;;;;;18.20;16.40;;;11.90;99.90;;;;;;2087724;28;20032;-68
2022/06/01 00:28:18;;;;;;;17.88;15.98;;;11.90;99.90;;;;;;2087966;28;20068;-71
2022/06/01 00:29:19;;;;;;;18.52;16.70;;;11.90;99.90;;;;;;2088509;28;20139;-68
2022/06/01 00:30:21;;;;;;;18.70;16.80;;;11.90;99.90;;;;;;2088462;28;20108;-67
2022/06/01 00:31:21;;;;;;;18.10;16.17;;;11.80;99.90;;;;;;2088645;28;20025;-70
2022/06/01 00:32:22;;;;;;;16.48;14.75;;;11.80;99.90;;;;;;2088722;28;20365;-68
2022/06/01 00:33:23;;;;;;;17.85;15.95;;;11.80;99.90;;;;;;2088778;28;20020;-69
2022/06/01 00:34:24;;;;;;;17.95;16.05;;;11.80;99.90;;;;;;2088728;28;20021;-67
2022/06/01 00:35:25;;;;;;;17.58;15.77;;;11.80;99.90;;;;;;2088360;28;20525;-70
2022/06/01 00:36:26;;;;;;;18.33;16.42;;;11.80;99.90;;;;;;2088572;28;20097;-66
2022/06/01 00:37:27;;;;;;;18.65;16.75;;;11.80;99.90;;;;;;2088515;28;20678;-71
2022/06/01 00:38:27;;;;;;;18.20;16.40;;;11.80;99.90;;;;;;2088744;28;20442;-72
2022/06/01 00:39:28;;;;;;;17.45;15.68;;;11.80;99.90;;;;;;2088725;28;20032;-69
2022/06/01 00:40:30;;;;;;;19.67;17.67;;;11.70;99.90;;;;;;2087802;28;20079;-71
2022/06/01 00:41:31;;;;;;;19.92;17.88;;;11.70;99.90;;;;;;2087831;28;20040;-75
2022/06/01 00:42:34;;;;;;;18.73;16.73;;;11.70;99.90;;;;;;2088056;28;20117;-70
2022/06/01 00:43:45;;;;;;;17.35;15.65;;;11.70;99.90;;;;;;2088161;28;20450;-70
2022/06/01 00:44:47;;;;;;;18.45;16.55;;;11.70;99.90;;;;;;2088901;28;20774;-70
2022/06/01 00:45:48;;;;;;;17.65;15.80;;;11.70;99.90;;;;;;2088448;28;20017;-67
2022/06/01 00:46:48;;;;;;;19.08;16.98;;;11.70;99.90;;;;;;2088671;28;20044;-68
2022/06/01 00:47:50;;;;;;;18.15;16.27;;;11.70;99.90;;;;;;2088463;28;20033;-69
2022/06/01 00:48:56;;;;;;;18.17;16.35;;;11.70;99.90;;;;;;2088640;28;20025;-70
2022/06/01 00:50:02;;;;;;;19.02;17.23;;;11.70;99.90;;;;;;2088513;28;20411;-67
2022/06/01 00:51:02;;;;;;;20.35;18.25;;;11.70;99.90;;;;;;2088488;28;20074;-67
2022/06/01 00:52:04;;;;;;;18.88;16.98;;;11.70;99.90;;;;;;2088600;28;20549;-68
2022/06/01 00:53:11;;;;;;;18.80;17.00;;;11.70;99.90;;;;;;2088493;28;20060;-70
2022/06/01 00:54:12;;;;;;;19.75;17.75;;;11.80;99.90;;;;;;2088626;28;20025;-70
2022/06/01 00:55:17;;;;;;;20.80;18.60;;;11.70;99.90;;;;;;2088216;28;20033;-67
2022/06/01 00:56:27;;;;;;;20.38;18.33;;;11.70;99.90;;;;;;2088316;28;20023;-70
2022/06/01 00:57:28;;;;;;;22.88;20.48;;;11.70;99.90;;;;;;2088524;28;20094;-68
2022/06/01 00:58:35;;;;;;;23.50;20.17;;;11.70;99.90;;;;;;2088360;28;20080;-68
2022/06/01 00:59:40;;;;;;;22.50;20.20;;;11.70;99.90;;;;;;2088426;28;20091;-70
2022/06/01 01:00:42;;;;;;;22.50;19.70;;;11.70;99.90;;;;;;2088026;28;20044;-69
2022/06/01 01:01:43;;;;;;;21.75;19.55;;;11.70;99.90;;;;;;2088290;28;20104;-68
2022/06/01 01:02:44;;;;;;;21.70;18.92;;;11.70;99.90;;;;;;2087890;28;20028;-69
2022/06/01 01:03:49;;;;;;;20.00;17.60;;;11.60;99.90;;;;;;2087844;28;20613;-68
2022/06/01 01:04:50;;;;;;;22.05;19.75;;;11.70;99.90;;;;;;2088399;28;20025;-70
2022/06/01 01:06:15;;;;;;;21.35;19.15;;;11.70;99.90;;;;;;2087973;28;20045;-69
2022/06/01 01:07:16;;;;;;;23.88;20.90;;;11.70;99.90;;;;;;2088328;28;20391;-70
2022/06/01 01:08:16;;;;;;;21.25;19.05;;;11.70;99.90;;;;;;2088419;28;20123;-70
2022/06/01 01:09:18;;;;;;;24.88;22.25;;;11.70;99.90;;;;;;2088314;28;20029;-70
2022/06/01 01:10:20;;;;;;;23.35;20.60;;;11.60;99.90;;;;;;2088219;28;20530;-70
2022/06/01 01:11:36;;;;;;;23.83;21.23;;;11.70;99.90;;;;;;2088268;28;20483;-68
2022/06/01 01:13:58;;;;;;;27.15;23.60;;;11.60;99.90;;;;;;2088387;28;20054;-69
2022/06/01 01:14:58;;;;;;;25.65;22.63;;;11.60;99.90;;;;;;2088279;28;20121;-68
2022/06/01 01:15:59;;;;;;;28.27;25.17;;;11.60;99.90;;;;;;2088084;28;20032;-69
2022/06/01 01:17:02;;;;;;;27.90;24.48;;;11.60;99.90;;;;;;2087809;28;20044;-69
2022/06/01 01:18:13;;;;;;;27.17;24.02;;;11.60;99.90;;;;;;2087823;28;20032;-69
2022/06/01 01:19:24;;;;;;;25.67;22.85;;;11.60;99.90;;;;;;2088057;28;20599;-68
2022/06/01 01:20:26;;;;;;;25.50;22.80;;;11.60;99.90;;;;;;2088284;28;20043;-69
2022/06/01 01:21:56;;;;;;;25.77;23.02;;;11.60;99.90;;;;;;2088224;28;20048;-71
2022/06/01 01:23:06;;;;;;;24.98;21.60;;;11.60;99.90;;;;;;2088326;28;20487;-68
2022/06/01 01:24:26;;;;;;;24.17;21.55;;;11.60;99.90;;;;;;2088253;28;20479;-68
2022/06/01 01:25:28;;;;;;;26.23;22.98;;;11.60;99.90;;;;;;2087957;28;20383;-68
2022/06/01 01:26:30;;;;;;;27.80;23.67;;;11.50;99.90;;;;;;2088204;28;20041;-68
2022/06/01 01:27:33;;;;;;;24.08;21.48;;;11.60;99.90;;;;;;2088156;28;20036;-69
2022/06/01 01:28:34;;;;;;;24.17;21.48;;;11.60;99.90;;;;;;2088283;28;20795;-69
2022/06/01 01:29:36;;;;;;;23.80;21.30;;;11.60;99.90;;;;;;2088167;28;20036;-70
2022/06/01 01:30:40;;;;;;;23.42;20.92;;;11.50;99.90;;;;;;2088025;28;20029;-68
2022/06/01 01:31:43;;;;;;;24.15;20.88;;;11.50;99.90;;;;;;2087674;28;20043;-68
2022/06/01 01:32:43;;;;;;;23.55;20.60;;;11.50;99.90;;;;;;2088161;28;20059;-68
2022/06/01 01:33:46;;;;;;;22.95;20.52;;;11.50;99.90;;;;;;2088323;28;20675;-68
2022/06/01 01:34:46;;;;;;;22.92;20.30;;;11.50;99.90;;;;;;2088175;28;20569;-69
2022/06/01 01:35:51;;;;;;;23.17;20.67;;;11.50;99.90;;;;;;2087815;28;20029;-69
2022/06/01 01:36:55;;;;;;;22.75;20.35;;;11.50;99.90;;;;;;2088202;28;20047;-69
2022/06/01 01:37:57;;;;;;;23.70;20.50;;;11.50;99.90;;;;;;2088356;28;20036;-68
2022/06/01 01:39:11;;;;;;;23.20;20.80;;;11.40;99.90;;;;;;2088306;28;20452;-68
2022/06/01 01:40:11;;;;;;;22.80;20.08;;;11.40;99.90;;;;;;2088049;28;20031;-70
2022/06/01 01:41:15;;;;;;;23.77;20.70;;;11.40;99.90;;;;;;2087929;28;20699;-70
2022/06/01 01:42:15;;;;;;;24.15;21.55;;;11.40;99.90;;;;;;2088123;28;20025;-68
2022/06/01 01:43:18;;;;;;;23.38;20.85;;;11.40;99.90;;;;;;2087442;28;20171;-69
2022/06/01 01:44:22;;;;;;;23.00;20.55;;;11.30;99.90;;;;;;2087503;28;20021;-68
2022/06/01 01:45:29;;;;;;;23.73;21.23;;;11.30;99.90;;;;;;2087852;28;20029;-69
2022/06/01 01:46:31;;;;;;;24.52;21.80;;;11.30;99.90;;;;;;2088138;28;20028;-70
2022/06/01 01:47:36;;;;;;;24.08;21.48;;;11.30;99.90;;;;;;2087258;28;20040;-70
2022/06/01 01:48:37;;;;;;;24.00;21.40;;;11.30;99.90;;;;;;2087597;28;20032;-69
2022/06/01 01:49:38;;;;;;;24.15;21.55;;;11.20;99.90;;;;;;2088021;28;20031;-70
2022/06/01 01:50:39;;;;;;;22.80;20.17;;;11.20;99.90;;;;;;2088059;28;20033;-69
2022/06/01 01:51:39;;;;;;;25.13;22.42;;;11.20;99.90;;;;;;2087987;28;20056;-71
2022/06/01 01:52:41;;;;;;;25.27;22.35;;;11.20;99.90;;;;;;2088094;28;20040;-71
2022/06/01 01:53:42;;;;;;;24.20;21.60;;;11.20;99.90;;;;;;2087994;28;20033;-71
2022/06/01 01:55:06;;;;;;;25.02;21.90;;;11.20;99.90;;;;;;2088188;28;20024;-71
2022/06/01 01:56:29;;;;;;;25.35;22.55;;;11.20;99.90;;;;;;2088215;28;20072;-71
2022/06/01 01:57:59;;;;;;;24.65;21.92;;;11.20;99.90;;;;;;2088129;28;20108;-70
2022/06/01 01:59:36;;;;;;;24.10;21.50;;;11.10;99.90;;;;;;2088110;28;20086;-69
2022/06/01 02:00:42;;;;;;;24.90;22.23;;;11.10;99.90;;;;;;2090357;28;20021;-68
2022/06/01 02:02:16;;;;;;;24.80;22.05;;;11.10;99.90;;;;;;2096120;28;20067;-68
2022/06/01 02:03:27;;;;;;;22.75;20.35;;;11.10;99.90;;;;;;2070098;28;20073;-68
2022/06/01 02:06:05;;;;;;;28.92;23.00;;;11.10;99.90;;;;;;2096087;28;20040;-69
2022/06/01 02:07:11;;;;;;;24.65;21.83;;;11.10;99.90;;;;;;2095467;28;20801;-69
2022/06/01 02:08:11;;;;;;;24.55;21.63;;;11.00;99.90;;;;;;2093870;28;20079;-70
2022/06/01 02:09:13;;;;;;;26.40;22.73;;;11.10;99.90;;;;;;2088039;28;20029;-70
2022/06/01 02:13:12;;;;;;;27.45;23.45;;;11.00;99.90;;;;;;2087839;28;20025;-71
2022/06/01 02:14:37;;;;;;;25.80;22.98;;;11.00;99.90;;;;;;2087886;28;20174;-70
2022/06/01 02:15:42;;;;;;;29.13;25.45;;;11.00;99.90;;;;;;2087608;28;20036;-70
2022/06/01 02:16:52;;;;;;;31.23;24.83;;;11.00;99.90;;;;;;2087904;28;20033;-71
2022/06/01 02:17:57;;;;;;;27.23;24.33;;;11.00;99.90;;;;;;2087855;28;20021;-70
2022/06/01 02:19:01;;;;;;;27.55;24.55;;;11.00;99.90;;;;;;2087843;28;20478;-71
2022/06/01 02:20:10;;;;;;;26.70;23.33;;;11.00;99.90;;;;;;2087728;28;20635;-70
2022/06/01 02:21:18;;;;;;;26.17;23.23;;;11.00;99.90;;;;;;2087834;28;20076;-70
2022/06/01 02:22:19;;;;;;;26.67;23.83;;;11.00;99.90;;;;;;2087906;28;20494;-69
2022/06/01 02:23:21;;;;;;;27.80;24.83;;;10.90;99.90;;;;;;2087861;28;20041;-69
2022/06/01 02:24:23;;;;;;;26.95;23.85;;;11.00;99.90;;;;;;2087759;28;20744;-69
2022/06/01 02:25:24;;;;;;;27.92;24.30;;;10.90;99.90;;;;;;2087582;28;20029;-69
2022/06/01 02:26:27;;;;;;;27.38;24.33;;;10.90;99.90;;;;;;2087741;28;20071;-69
2022/06/01 02:27:29;;;;;;;27.63;24.60;;;10.90;99.90;;;;;;2087581;28;20051;-71
2022/06/01 02:28:30;;;;;;;25.85;23.05;;;10.90;99.90;;;;;;2087841;28;20025;-69
2022/06/01 02:29:47;;;;;;;26.33;23.52;;;10.90;99.90;;;;;;2087733;28;20021;-69
2022/06/01 02:30:48;;;;;;;25.73;22.92;;;10.90;99.90;;;;;;2087918;28;20033;-70
2022/06/01 02:31:50;;;;;;;30.02;25.77;;;10.90;99.90;;;;;;2087753;28;20541;-69
2022/06/01 02:32:53;;;;;;;27.48;23.88;;;10.90;99.90;;;;;;2087833;28;20124;-68
2022/06/01 02:33:54;;;;;;;27.88;23.92;;;10.90;99.90;;;;;;2087867;28;20020;-69
2022/06/01 02:35:00;;;;;;;25.40;22.60;;;10.90;99.90;;;;;;2087630;28;20103;-68
2022/06/01 02:36:05;;;;;;;26.90;23.65;;;10.90;99.90;;;;;;2087658;28;20624;-71
2022/06/01 02:37:07;;;;;;;25.20;22.52;;;10.90;99.90;;;;;;2087880;28;20531;-68
2022/06/01 02:38:16;;;;;;;27.15;23.63;;;10.90;99.90;;;;;;2087870;28;20093;-72
2022/06/01 02:39:18;;;;;;;28.17;24.60;;;10.90;99.90;;;;;;2087872;28;20035;-70
2022/06/01 02:40:22;;;;;;;28.38;25.27;;;10.80;99.90;;;;;;2087716;28;20074;-71
2022/06/01 02:42:46;;;;;;;26.55;22.73;;;10.80;99.90;;;;;;2088646;28;20033;-70
2022/06/01 02:43:50;;;;;;;27.30;23.38;;;10.80;99.90;;;;;;2089793;28;20487;-74
2022/06/01 02:44:54;;;;;;;25.95;23.08;;;10.80;99.90;;;;;;2089651;28;20029;-68
2022/06/01 02:45:56;;;;;;;27.98;24.90;;;10.80;99.90;;;;;;2089228;28;20060;-70
2022/06/01 02:46:57;;;;;;;27.70;23.92;;;10.80;99.90;;;;;;2089555;28;20505;-68
2022/06/01 02:48:02;;;;;;;28.25;25.00;;;10.80;99.90;;;;;;2088853;28;20036;-69
2022/06/01 02:49:04;;;;;;;27.60;24.20;;;10.80;99.90;;;;;;2088789;28;20549;-70
2022/06/01 02:50:07;;;;;;;27.60;24.55;;;10.80;99.90;;;;;;2088660;28;20025;-70
2022/06/01 02:51:07;;;;;;;28.63;25.05;;;10.80;99.90;;;;;;2088714;28;20048;-70
2022/06/01 02:52:08;;;;;;;28.40;25.13;;;10.80;99.90;;;;;;2089323;28;20372;-70
2022/06/01 02:53:09;;;;;;;28.02;24.65;;;10.80;99.90;;;;;;2089348;28;20055;-69
2022/06/01 02:54:10;;;;;;;29.38;25.27;;;10.80;99.90;;;;;;2089375;28;20036;-68
2022/06/01 02:55:12;;;;;;;28.92;24.65;;;10.80;99.90;;;;;;2089052;28;20037;-70
2022/06/01 02:56:13;;;;;;;27.08;24.20;;;10.80;99.90;;;;;;2089295;28;20429;-69
2022/06/01 02:57:14;;;;;;;27.70;24.58;;;10.80;99.90;;;;;;2089316;28;20542;-68
2022/06/01 02:58:15;;;;;;;29.30;25.33;;;10.70;99.90;;;;;;2089156;28;20036;-69
2022/06/01 02:59:15;;;;;;;27.58;24.58;;;10.80;99.90;;;;;;2089342;28;20123;-69
2022/06/01 03:00:40;;;;;;;27.42;24.38;;;10.80;99.90;;;;;;2089592;28;20029;-69
2022/06/01 03:01:43;;;;;;;26.90;23.77;;;10.80;99.90;;;;;;2097667;28;20083;-69
2022/06/01 03:02:51;;;;;;;28.20;24.85;;;10.80;99.90;;;;;;2096311;28;20501;-69
2022/06/01 03:03:53;;;;;;;27.42;23.58;;;10.80;99.90;;;;;;2089478;28;20647;-69
2022/06/01 03:04:53;;;;;;;25.50;22.65;;;10.80;99.90;;;;;;2089387;28;20560;-68
2022/06/01 03:05:54;;;;;;;26.05;23.05;;;10.80;99.90;;;;;;2089172;28;20091;-68
2022/06/01 03:06:55;;;;;;;27.90;24.00;;;10.80;99.90;;;;;;2089450;28;20487;-70
2022/06/01 03:07:56;;;;;;;27.58;24.42;;;10.80;99.90;;;;;;2096633;28;20214;-69
2022/06/01 03:08:57;;;;;;;26.85;23.95;;;10.80;99.90;;;;;;2097373;28;20039;-69
2022/06/01 03:09:58;;;;;;;27.98;24.38;;;10.80;99.90;;;;;;2094016;28;20749;-68
2022/06/01 03:10:59;;;;;;;28.77;24.35;;;10.80;99.90;;;;;;2087916;28;20028;-69
2022/06/01 03:11:59;;;;;;;28.08;24.08;;;10.80;99.90;;;;;;2089122;28;20036;-69
2022/06/01 03:13:00;;;;;;;27.30;23.55;;;10.80;99.90;;;;;;2089244;28;20032;-69
2022/06/01 03:14:01;;;;;;;27.83;24.10;;;10.80;99.90;;;;;;2089263;28;20029;-69
2022/06/01 03:15:01;;;;;;;27.75;24.30;;;10.80;99.90;;;;;;2089240;28;20079;-68
2022/06/01 03:16:02;;;;;;;28.95;25.00;;;10.80;99.90;;;;;;2088899;28;20023;-69
2022/06/01 03:17:06;;;;;;;25.73;22.98;;;10.80;99.90;;;;;;2089124;28;20778;-72
2022/06/01 03:18:07;;;;;;;26.73;23.83;;;10.80;99.90;;;;;;2089206;28;20044;-67
2022/06/01 03:19:08;;;;;;;26.25;23.00;;;10.80;99.90;;;;;;2089107;28;20139;-68
2022/06/01 03:20:10;;;;;;;25.85;22.90;;;10.90;99.90;;;;;;2088297;28;20120;-69
2022/06/01 03:21:11;;;;;;;28.75;23.60;;;10.80;99.90;;;;;;2088277;28;20036;-68
2022/06/01 03:22:11;;;;;;;26.33;23.15;;;10.90;99.90;;;;;;2089080;28;20028;-69
2022/06/01 03:23:12;;;;;;;26.25;22.75;;;10.90;99.90;;;;;;2089107;28;20044;-68
2022/06/01 03:24:13;;;;;;;25.17;21.92;;;10.90;99.90;;;;;;2088500;28;20037;-70
2022/06/01 03:25:17;;;;;;;28.30;23.08;;;10.90;99.90;;;;;;2088317;28;20047;-71
2022/06/01 03:26:18;;;;;;;27.10;21.73;;;10.90;99.90;;;;;;2088878;28;20024;-70
2022/06/01 03:27:20;;;;;;;26.98;22.75;;;11.00;99.90;;;;;;2089037;28;20040;-68
2022/06/01 03:28:20;;;;;;;27.33;23.40;;;10.90;99.90;;;;;;2089181;28;20498;-69
2022/06/01 03:29:21;;;;;;;28.42;23.35;;;10.90;99.90;;;;;;2089048;28;20053;-69
2022/06/01 03:30:22;;;;;;;26.73;23.05;;;11.00;99.90;;;;;;2089027;28;20024;-69
2022/06/01 03:31:22;;;;;;;26.60;22.48;;;11.00;99.90;;;;;;2089004;28;20171;-69
2022/06/01 03:32:23;;;;;;;26.27;22.95;;;11.00;99.90;;;;;;2089098;28;20052;-70
2022/06/01 03:33:24;;;;;;;27.67;23.13;;;11.00;99.90;;;;;;2089083;28;20029;-68
2022/06/01 03:34:26;;;;;;;28.77;23.50;;;11.10;99.90;;;;;;2089187;28;20068;-70
2022/06/01 03:35:30;;;;;;;26.75;22.60;;;11.00;99.90;;;;;;2088687;28;20078;-71
2022/06/01 03:36:31;;;;;;;28.35;23.52;;;11.10;99.90;;;;;;2089149;28;20086;-68
2022/06/01 03:37:32;;;;;;;26.35;22.90;;;11.10;99.90;;;;;;2089130;28;20090;-69
2022/06/01 03:38:33;;;;;;;25.50;22.23;;;11.10;99.90;;;;;;2088504;28;20021;-69
2022/06/01 03:39:33;;;;;;;26.02;22.27;;;11.10;99.90;;;;;;2088391;28;20048;-71
2022/06/01 03:40:37;;;;;;;26.52;22.83;;;11.20;99.90;;;;;;2089118;28;20364;-69
2022/06/01 03:41:38;;;;;;;24.73;22.00;;;11.20;99.90;;;;;;2089119;28;20025;-67
2022/06/01 03:42:39;;;;;;;25.35;22.60;;;11.20;99.90;;;;;;2089296;28;20080;-68
2022/06/01 03:46:18;;;;;;;25.38;21.88;;;11.20;99.90;;;;;;2088977;28;20071;-70
2022/06/01 03:47:19;;;;;;;26.83;22.35;;;11.20;99.90;;;;;;2089047;28;20082;-68
2022/06/01 03:48:21;;;;;;;25.23;21.42;;;11.30;99.90;;;;;;2089153;28;20124;-70
2022/06/01 03:49:23;;;;;;;24.95;21.88;;;11.30;99.90;;;;;;2089166;28;20013;-68
2022/06/01 03:50:25;;;;;;;24.98;22.27;;;11.30;99.90;;;;;;2089066;28;20017;-73
2022/06/01 03:51:26;;;;;;;23.05;20.58;;;11.30;99.90;;;;;;2088256;28;20060;-67
2022/06/01 03:52:27;;;;;;;23.75;20.95;;;11.30;99.90;;;;;;2088345;28;20546;-71
2022/06/01 03:53:29;;;;;;;24.17;21.42;;;11.30;99.90;;;;;;2088964;28;20032;-69
2022/06/01 03:54:30;;;;;;;24.85;20.83;;;11.30;99.90;;;;;;2087779;28;20109;-70
2022/06/01 03:55:31;;;;;;;25.00;21.08;;;11.30;99.90;;;;;;2088601;28;20036;-68
2022/06/01 03:56:32;;;;;;;24.10;21.45;;;11.30;99.90;;;;;;2088837;28;20112;-71
2022/06/01 03:57:34;;;;;;;23.83;21.00;;;11.30;99.90;;;;;;2088964;28;20020;-68
2022/06/01 03:58:36;;;;;;;22.13;19.75;;;11.40;99.90;;;;;;2088647;28;20056;-67
2022/06/01 03:59:36;;;;;;;22.30;19.90;;;11.40;99.90;;;;;;2088820;28;20100;-68
2022/06/01 04:00:37;;;;;;;22.08;19.73;;;11.40;99.90;;;;;;2093468;28;20025;-68
2022/06/01 04:01:38;;;;;;;22.38;19.98;;;11.50;99.90;;;;;;2097108;28;20033;-69
2022/06/01 04:02:40;;;;;;;22.02;19.73;;;11.50;99.90;;;;;;2097177;28;20045;-70
2022/06/01 04:03:40;;;;;;;21.48;19.23;;;11.60;99.90;;;;;;2097300;28;20036;-69
2022/06/01 04:04:41;;;;;;;23.17;19.67;;;11.70;99.90;;;;;;2097326;28;20025;-68
2022/06/01 04:05:42;;;;;;;20.90;18.65;;;11.80;99.90;;;;;;2097011;28;20036;-70
2022/06/01 04:06:42;;;;;;;20.17;18.00;;;12.00;99.90;;;;;;2097286;28;20032;-68
2022/06/01 04:07:43;;;;;;;21.25;18.95;;;12.20;99.90;;;;;;2096942;28;20150;-68
2022/06/01 04:08:43;;;;;;;20.48;18.27;;;12.50;99.90;;;;;;2097140;28;20036;-70
2022/06/01 04:09:45;;;;;;;18.65;16.65;;;12.80;99.90;;;;;;2097116;28;20111;-69
2022/06/01 04:10:46;;;;;;;17.95;16.15;;;13.10;99.90;;;;;;2097021;28;20037;-69
2022/06/01 04:11:46;;;;;;;16.88;15.10;;;13.40;99.90;;;;;;2088764;28;20052;-68
2022/06/01 04:12:48;;;;;;;16.98;15.00;;;13.70;99.90;;;;;;2097027;28;20058;-69
2022/06/01 04:13:48;;;;;;;16.90;14.60;;;14.10;99.90;;;;;;2097169;28;20039;-70
2022/06/01 04:14:49;;;;;;;16.55;14.85;;;14.40;99.90;;;;;;2097698;28;20033;-71
2022/06/01 04:15:50;;;;;;;15.88;14.23;;;14.60;99.90;;;;;;2097672;28;20036;-68
2022/06/01 04:16:50;;;;;;;16.40;14.68;;;14.90;99.90;;;;;;2097727;28;20059;-73
2022/06/01 04:17:51;;;;;;;16.45;14.75;;;15.10;99.90;;;;;;2097581;28;20036;-68
2022/06/01 04:18:51;;;;;;;16.38;14.77;;;15.40;99.90;;;;;;2097857;28;20113;-69
2022/06/01 04:19:52;;;;;;;17.83;16.02;;;15.60;99.90;;;;;;2098328;28;20020;-68
2022/06/01 04:20:54;;;;;;;17.73;15.02;;;15.70;99.90;;;;;;2098445;28;20611;-68
2022/06/01 04:21:55;;;;;;;18.73;16.75;;;15.70;99.90;;;;;;2098254;28;20024;-68
2022/06/01 04:23:00;;;;;;;16.27;14.50;;;15.80;99.90;;;;;;2098515;28;20500;-70
2022/06/01 04:24:02;;;;;;;15.32;13.77;;;15.90;99.90;;;;;;2098263;28;20038;-68
2022/06/01 04:25:03;;;;;;;16.45;14.68;;;16.10;99.90;;;;;;2098692;28;20033;-69
2022/06/01 04:26:04;;;;;;;15.70;14.20;;;16.20;99.90;;;;;;2098005;28;20127;-70
2022/06/01 04:27:05;;;;;;;15.95;14.25;;;16.30;99.90;;;;;;2098563;28;20028;-72
2022/06/01 04:28:06;;;;;;;15.98;14.38;;;16.40;99.90;;;;;;2098469;28;20064;-69
2022/06/01 04:29:06;;;;;;;16.27;14.57;;;16.50;99.90;;;;;;2098873;28;20024;-67
2022/06/01 04:30:10;;;;;;;16.60;14.90;;;16.60;99.90;;;;;;2097844;28;20560;-69
2022/06/01 04:31:11;;;;;;;15.85;14.25;;;16.60;99.90;;;;;;2097582;28;20024;-69
2022/06/01 04:32:19;;;;;;;15.95;14.38;;;16.70;99.90;;;;;;2097462;28;20028;-67
2022/06/01 04:33:20;;;;;;;16.63;14.65;;;16.80;99.90;;;;;;2097349;28;20690;-69
2022/06/01 04:34:20;;;;;;;16.08;14.43;;;16.90;99.90;;;;;;2097429;28;20052;-68
2022/06/01 04:35:23;;;;;;;14.27;12.95;;;17.00;99.90;;;;;;2097019;28;20028;-72
2022/06/01 04:36:25;;;;;;;15.48;13.82;;;17.20;99.90;;;;;;2096778;28;20052;-70
2022/06/01 04:37:25;;;;;;;15.68;14.07;;;17.30;99.90;;;;;;2096695;28;20033;-71
2022/06/01 04:38:26;;;;;;;14.63;13.15;;;17.40;99.90;;;;;;2097127;28;20025;-68
2022/06/01 04:39:26;;;;;;;15.60;14.10;;;17.50;99.90;;;;;;2097088;28;20020;-69
2022/06/01 04:40:27;;;;;;;14.27;12.77;;;17.60;99.90;;;;;;2096717;28;20051;-70
2022/06/01 04:41:28;;;;;;;14.10;12.80;;;17.80;99.90;;;;;;2096996;28;20047;-70
2022/06/01 04:42:28;;;;;;;14.98;13.52;;;18.10;99.90;;;;;;2096987;28;20031;-70
2022/06/01 04:43:29;;;;;;;14.63;13.23;;;18.10;99.90;;;;;;2096911;28;20024;-70
2022/06/01 04:44:30;;;;;;;18.92;16.95;;;18.10;99.90;;;;;;2096847;28;20020;-69
2022/06/01 04:45:30;;;;;;;16.70;15.00;;;18.00;99.90;;;;;;2096784;28;20112;-68
2022/06/01 04:46:31;;;;;;;17.83;16.05;;;17.80;99.90;;;;;;2096266;28;20106;-68
2022/06/01 04:47:31;;;;;;;18.02;16.13;;;17.60;99.90;;;;;;2087833;28;20514;-72
2022/06/01 04:48:32;;;;;;;19.10;17.20;;;17.30;99.90;;;;;;2096051;28;20482;-68
2022/06/01 04:49:33;;;;;;;20.48;18.30;;;16.90;99.90;;;;;;2096848;28;20025;-68
2022/06/01 04:50:34;;;;;;;17.92;16.05;;;16.50;99.90;;;;;;2096764;28;20094;-68
2022/06/01 04:51:35;;;;;;;16.77;15.05;;;16.30;99.90;;;;;;2096172;28;20024;-70
2022/06/01 04:52:36;;;;;;;16.63;14.98;;;16.30;99.90;;;;;;2096272;28;20044;-68
2022/06/01 04:53:40;;;;;;;17.10;15.40;;;16.20;99.90;;;;;;2096824;28;20429;-68
2022/06/01 04:54:41;;;;;;;20.98;17.17;;;16.10;99.90;;;;;;2096843;28;20474;-70
2022/06/01 04:55:43;;;;;;;16.65;15.00;;;16.20;99.90;;;;;;2096672;28;20028;-70
2022/06/01 04:56:44;;;;;;;16.40;14.75;;;16.20;99.90;;;;;;2096728;28;20527;-72
2022/06/01 04:57:45;;;;;;;16.30;14.65;;;16.50;99.90;;;;;;2096790;28;20060;-70
2022/06/01 04:58:45;;;;;;;17.10;15.40;;;16.70;99.90;;;;;;2096481;28;20755;-70
2022/06/01 04:59:46;;;;;;;15.52;13.95;;;17.00;99.90;;;;;;2096736;28;20036;-71
2022/06/01 05:00:49;;;;;;;16.20;14.38;;;17.20;99.90;;;;;;2095631;28;20021;-69
2022/06/01 05:01:50;;;;;;;15.30;13.52;;;17.30;99.90;;;;;;2096090;28;20090;-72
2022/06/01 05:02:51;;;;;;;15.02;13.52;;;17.50;99.90;;;;;;2096059;28;20443;-68
2022/06/01 05:03:51;;;;;;;15.88;14.18;;;17.60;99.90;;;;;;2091867;28;20087;-68
2022/06/01 05:04:52;;;;;;;16.23;14.63;;;17.70;99.90;;;;;;2087721;28;20040;-71
2022/06/01 05:05:52;;;;;;;16.90;15.05;;;17.70;99.90;;;;;;2087443;28;20025;-69
2022/06/01 05:06:53;;;;;;;16.85;15.10;;;17.70;99.90;;;;;;2088289;28;20078;-67
2022/06/01 05:07:54;;;;;;;17.48;14.43;;;17.50;99.90;;;;;;2088327;28;20033;-69
2022/06/01 05:08:54;;;;;;;16.27;14.68;;;17.50;99.90;;;;;;2088373;28;20024;-72
2022/06/01 05:09:55;;;;;;;15.98;14.38;;;17.50;99.90;;;;;;2088329;28;20062;-69
2022/06/01 05:10:56;;;;;;;15.27;13.77;;;17.60;99.90;;;;;;2088315;28;20037;-70
2022/06/01 05:11:56;;;;;;;14.52;13.05;;;17.60;99.90;;;;;;2088358;28;20247;-71
2022/06/01 05:12:57;;;;;;;14.93;13.43;;;17.70;99.90;;;;;;2088222;28;20170;-70
2022/06/01 05:13:58;;;;;;;14.23;12.82;;;17.90;99.90;;;;;;2088259;28;20063;-69
2022/06/01 05:14:59;;;;;;;14.77;13.30;;;18.00;99.90;;;;;;2088277;28;20044;-69
2022/06/01 05:16:02;;;;;;;16.48;14.88;;;18.20;99.90;;;;;;2087768;28;20035;-71
2022/06/01 05:17:02;;;;;;;14.55;13.07;;;18.30;99.90;;;;;;2087969;28;20063;-71
2022/06/01 05:18:03;;;;;;;15.15;13.65;;;18.50;99.90;;;;;;2088246;28;20094;-70
2022/06/01 05:19:04;;;;;;;13.90;12.43;;;18.60;99.90;;;;;;2088233;28;20029;-68
2022/06/01 05:20:09;;;;;;;15.07;13.60;;;18.80;99.90;;;;;;2088140;28;20483;-71
2022/06/01 05:21:10;;;;;;;14.38;12.88;;;18.90;99.90;;;;;;2088237;28;20037;-69
2022/06/01 05:22:11;;;;;;;15.23;13.73;;;19.10;99.90;;;;;;2088125;28;20119;-70
2022/06/01 05:23:12;;;;;;;14.60;13.18;;;19.20;99.90;;;;;;2088220;28;20116;-69
2022/06/01 05:24:13;;;;;;;15.15;13.60;;;19.30;99.90;;;;;;2088249;28;20063;-69
2022/06/01 05:25:14;;;;;;;16.33;14.65;;;19.40;99.40;;;;;;2087872;28;20044;-70
2022/06/01 05:26:14;;;;;;;15.50;12.93;;;19.50;98.50;;;;;;2088221;28;20048;-70
2022/06/01 05:27:15;;;;;;;16.27;14.52;;;19.60;98.30;;;;;;2088225;28;20041;-72
2022/06/01 05:28:23;;;;;;;15.07;13.57;;;19.70;97.20;;;;;;2088158;28;20040;-69
2022/06/01 05:29:24;;;;;;;13.57;12.27;;;19.70;96.90;;;;;;2088255;28;20025;-68
2022/06/01 05:30:25;;;;;;;13.90;12.60;;;19.80;96.70;;;;;;2088071;28;20108;-71